Time;durP1;ratioP1;P1;durP2;ratioP2;P2;SDS_P1;SDS_P2;PMS_P1;PMS_P2;Temp;Humidity;BMP_temperature;BMP_pressure;BME280_temperature;BME280_humidity;BME280_pressure;Samples;Min_cycle;Max_cycle;Signal;HPM_P1;HPM_P2
2023/02/16 00:00:30;;;;;;;117.60;59.00;;;;;;;-0.24;94.76;100985.16;103085;1260;107825;-70
2023/02/16 00:03:19;;;;;;;119.70;56.30;;;;;;;-0.29;94.74;100982.33;103135;1260;97044;-71
2023/02/16 00:05:47;;;;;;;123.80;60.40;;;;;;;-0.31;94.91;100984.85;103083;1257;138676;-71
2023/02/16 00:08:26;;;;;;;124.40;61.50;;;;;;;-0.33;95.10;100983.45;103214;1257;96427;-70
2023/02/16 00:13:55;;;;;;;134.80;62.50;;;;;;;-0.38;95.11;100977.33;103103;1260;107850;-70
2023/02/16 00:16:31;;;;;;;127.60;62.20;;;;;;;-0.43;94.98;100970.21;103071;1254;138649;-71
2023/02/16 00:19:01;;;;;;;129.20;62.10;;;;;;;-0.45;95.00;100966.39;103273;1254;107572;-71
2023/02/16 00:21:28;;;;;;;132.60;61.90;;;;;;;-0.48;95.13;100964.46;103221;1260;96424;-71
2023/02/16 00:23:56;;;;;;;137.30;63.70;;;;;;;-0.50;95.23;100951.42;103137;1259;138386;-71
2023/02/16 00:26:44;;;;;;;142.50;65.30;;;;;;;-0.54;95.31;100947.90;103286;1259;108591;-71
2023/02/16 00:29:15;;;;;;;126.10;61.70;;;;;;;-0.56;95.57;100948.34;103422;1254;138560;-71
2023/02/16 00:31:42;;;;;;;134.30;63.70;;;;;;;-0.58;95.90;100943.19;103553;1251;106124;-70
2023/02/16 00:34:24;;;;;;;138.90;63.90;;;;;;;-0.56;96.55;100935.38;103414;1254;138635;-71
2023/02/16 00:36:52;;;;;;;130.50;60.80;;;;;;;-0.54;96.72;100935.92;103604;1251;109800;-70
2023/02/16 00:39:33;;;;;;;133.70;61.90;;;;;;;-0.52;96.88;100927.64;103498;1254;108131;-69
2023/02/16 00:42:03;;;;;;;129.40;62.10;;;;;;;-0.49;96.67;100923.95;103410;1251;138786;-70
2023/02/16 00:44:36;;;;;;;123.40;58.30;;;;;;;-0.46;96.76;100917.52;102669;1254;1003156;-72
2023/02/16 00:47:10;;;;;;;121.80;58.60;;;;;;;-0.43;96.81;100916.73;102576;1251;1003135;-70
2023/02/16 00:49:43;;;;;;;124.20;59.50;;;;;;;-0.38;97.25;100914.11;103442;1251;111072;-70
2023/02/16 00:52:29;;;;;;;120.00;58.10;;;;;;;-0.30;97.35;100915.16;103430;1251;138645;-69
2023/02/16 00:55:01;;;;;;;128.80;58.80;;;;;;;-0.21;97.31;100914.83;103279;1251;238738;-70
2023/02/16 00:57:32;;;;;;;125.10;60.70;;;;;;;-0.16;97.11;100910.86;103429;1251;107723;-71
2023/02/16 01:00:05;;;;;;;124.70;58.10;;;;;;;-0.11;96.91;100910.80;102704;1251;1003013;-71
2023/02/16 01:02:35;;;;;;;117.30;57.40;;;;;;;-0.07;96.72;100909.16;103502;1256;108936;-71
2023/02/16 01:05:10;;;;;;;;;;;;;;;-0.04;96.37;100903.08;103428;1255;139044;-71
2023/02/16 01:13:46;;;;;;;125.20;59.80;;;;;;;-0.02;95.65;100898.67;102660;1251;1002987;-70
2023/02/16 01:16:19;;;;;;;121.40;59.00;;;;;;;-0.04;95.35;100900.34;103314;1251;139411;-71
2023/02/16 01:18:54;;;;;;;122.60;58.90;;;;;;;-0.06;95.13;100899.10;102696;1255;1002672;-70
2023/02/16 01:21:31;;;;;;;130.70;61.40;;;;;;;-0.09;94.99;100894.59;102805;1257;1002636;-71
2023/02/16 01:24:19;;;;;;;125.90;60.90;;;;;;;-0.14;94.92;100897.57;103167;1251;138452;-70
2023/02/16 01:26:59;;;;;;;126.40;60.40;;;;;;;-0.19;94.67;100899.52;103464;1257;96419;-71
2023/02/16 01:29:29;;;;;;;130.40;61.60;;;;;;;-0.22;94.67;100897.04;103473;1256;138585;-70
2023/02/16 01:32:01;;;;;;;126.70;61.60;;;;;;;-0.25;94.64;100889.97;103532;1256;107460;-69
2023/02/16 01:34:28;;;;;;;122.60;58.40;;;;;;;-0.28;94.58;100887.51;103284;1251;138951;-70
2023/02/16 01:36:57;;;;;;;127.00;62.30;;;;;;;-0.32;94.51;100885.22;103461;1251;107922;-71
2023/02/16 01:39:24;;;;;;;129.90;61.30;;;;;;;-0.36;94.58;100880.69;103442;1257;96439;-71
2023/02/16 01:42:02;;;;;;;125.30;60.80;;;;;;;-0.41;94.57;100875.94;101816;1251;1003068;-71
2023/02/16 01:44:34;;;;;;;136.10;63.30;;;;;;;-0.46;94.56;100872.92;103468;1251;106454;-71
2023/02/16 01:47:23;;;;;;;135.00;62.70;;;;;;;-0.52;94.55;100872.11;103355;1256;138698;-69
2023/02/16 01:49:50;;;;;;;138.10;64.20;;;;;;;-0.56;94.78;100870.46;103394;1251;108440;-70
2023/02/16 01:52:30;;;;;;;128.10;62.40;;;;;;;-0.58;94.99;100865.30;103402;1256;138759;-69
2023/02/16 01:55:06;;;;;;;126.00;60.90;;;;;;;-0.58;95.12;100860.17;103467;1256;110100;-69
2023/02/16 01:57:38;;;;;;;129.70;61.00;;;;;;;-0.57;95.25;100856.26;103338;1254;107226;-70
2023/02/16 02:00:29;;;;;;;131.60;60.40;;;;;;;-0.58;95.48;100856.26;102576;1251;1002687;-71
2023/02/16 02:05:33;;;;;;;125.00;60.70;;;;;;;-0.55;95.61;100858.17;103408;1253;107153;-71
2023/02/16 02:05:48;;;;;;;129.50;59.20;;;;;;;-0.54;95.50;100853.09;102663;1250;1003642;-71
2023/02/16 02:08:42;;;;;;;128.90;60.40;;;;;;;-0.53;95.41;100849.38;103400;1254;109875;-69
2023/02/16 02:11:18;;;;;;;131.00;60.80;;;;;;;-0.53;95.29;100849.20;103327;1253;139736;-71
2023/02/16 02:13:58;;;;;;;127.70;59.80;;;;;;;-0.54;95.17;100850.38;103462;1257;96966;-71
2023/02/16 02:16:29;;;;;;;124.60;60.20;;;;;;;-0.54;95.10;100853.08;103291;1251;139904;-71
2023/02/16 02:19:00;;;;;;;129.80;62.00;;;;;;;-0.56;95.05;100849.80;103381;1251;96313;-71
2023/02/16 02:25:11;;;;;;;135.90;61.90;;;;;;;-0.57;94.93;100843.11;103541;1254;108781;-70
2023/02/16 02:27:44;;;;;;;130.60;62.40;;;;;;;-0.57;95.02;100837.31;103525;1250;96474;-72
2023/02/16 02:30:28;;;;;;;125.60;61.30;;;;;;;-0.57;94.95;100837.15;102641;1254;1003819;-70
2023/02/16 02:33:14;;;;;;;133.00;63.50;;;;;;;-0.58;94.68;100832.85;103472;1254;97658;-72
2023/02/16 02:35:55;;;;;;;132.00;61.00;;;;;;;-0.58;94.67;100830.45;103368;1250;138359;-71
2023/02/16 02:38:31;;;;;;;129.10;60.80;;;;;;;-0.61;94.52;100825.27;103454;1254;106682;-70
2023/02/16 02:41:15;;;;;;;121.20;60.80;;;;;;;-0.62;94.55;100822.18;103445;1250;138576;-70
2023/02/16 02:43:50;;;;;;;118.80;58.60;;;;;;;-0.65;94.44;100823.16;103535;1251;108022;-71
2023/02/16 02:46:33;;;;;;;118.30;59.40;;;;;;;-0.69;94.41;100821.54;103382;1250;138659;-70
2023/02/16 02:49:21;;;;;;;119.00;58.10;;;;;;;-0.71;94.41;100819.44;103484;1253;111296;-70
2023/02/16 02:51:50;;;;;;;121.80;58.90;;;;;;;-0.72;94.52;100821.83;103502;1250;107605;-70
2023/02/16 03:02:57;;;;;;;128.90;62.10;;;;;;;-0.73;94.72;100805.35;103143;1255;110135;-71
2023/02/16 03:05:27;;;;;;;132.10;62.80;;;;;;;-0.76;94.77;100799.33;102575;1257;1002637;-71
2023/02/16 03:08:05;;;;;;;126.60;62.30;;;;;;;-0.78;94.62;100797.73;103175;1257;97087;-71
2023/02/16 03:13:25;;;;;;;134.80;64.50;;;;;;;-0.87;94.51;100785.94;103164;1256;96718;-71
2023/02/16 03:15:56;;;;;;;133.60;62.60;;;;;;;-0.91;94.47;100783.27;103097;1257;108848;-71
2023/02/16 03:29:32;;;;;;;137.00;64.30;;;;;;;-1.09;94.78;100770.39;103034;1256;138482;-71
2023/02/16 03:32:00;;;;;;;135.60;65.70;;;;;;;-1.10;95.02;100770.36;102333;1259;1002548;-72
2023/02/16 03:34:29;;;;;;;133.50;63.90;;;;;;;-1.12;95.20;100769.98;103131;1251;138933;-71
2023/02/16 03:36:59;;;;;;;142.40;65.20;;;;;;;-1.10;95.36;100773.95;103474;1250;107698;-71
2023/02/16 03:39:30;;;;;;;138.80;65.00;;;;;;;-1.10;95.38;100772.09;103521;1250;96319;-71
2023/02/16 03:41:58;;;;;;;135.30;63.60;;;;;;;-1.09;95.20;100767.30;103396;1254;138493;-71
2023/02/16 03:44:25;;;;;;;136.90;66.40;;;;;;;-1.09;95.46;100763.90;103377;1254;108857;-71
2023/02/16 03:46:52;;;;;;;139.20;66.20;;;;;;;-1.10;95.26;100761.84;102613;1254;1003096;-71
2023/02/16 03:49:20;;;;;;;137.50;65.20;;;;;;;-1.11;95.38;100754.14;103461;1254;108165;-70
2023/02/16 03:51:47;;;;;;;136.00;64.20;;;;;;;-1.13;95.24;100749.83;103423;1254;96431;-70
2023/02/16 03:54:17;;;;;;;136.30;64.80;;;;;;;-1.14;95.16;100745.35;102679;1251;1003696;-70
2023/02/16 03:56:59;;;;;;;135.50;64.60;;;;;;;-1.16;95.15;100741.56;103545;1250;107581;-70
2023/02/16 03:59:27;;;;;;;136.20;65.10;;;;;;;-1.19;95.15;100735.02;103459;1254;138626;-70
2023/02/16 04:01:55;;;;;;;137.70;64.10;;;;;;;-1.21;95.09;100729.35;103566;1254;107694;-71
2023/02/16 04:04:22;;;;;;;141.50;66.80;;;;;;;-1.23;95.15;100734.77;103435;1250;138861;-71
2023/02/16 04:06:49;;;;;;;143.10;65.90;;;;;;;-1.25;95.10;100738.31;103585;1251;111179;-70
2023/02/16 04:09:16;;;;;;;136.00;66.00;;;;;;;-1.27;95.10;100732.77;103473;1254;107730;-70
2023/02/16 04:14:59;;;;;;;137.50;64.40;;;;;;;-1.30;95.48;100729.31;102015;1250;1002997;-70
2023/02/16 04:17:47;;;;;;;139.70;65.70;;;;;;;-1.30;95.52;100724.53;103371;1256;138962;-70
2023/02/16 04:20:19;;;;;;;141.20;66.20;;;;;;;-1.29;95.44;100725.91;103554;1253;109435;-70
2023/02/16 04:22:47;;;;;;;136.90;65.10;;;;;;;-1.30;95.43;100726.23;103329;1255;139095;-70
2023/02/16 04:25:15;;;;;;;143.10;66.70;;;;;;;-1.29;95.42;100725.06;103409;1256;96524;-70
2023/02/16 04:27:54;;;;;;;142.50;64.50;;;;;;;-1.29;95.39;100723.70;103488;1253;107504;-70
2023/02/16 04:30:29;;;;;;;143.60;65.50;;;;;;;-1.30;95.54;100723.00;103409;1250;138408;-70
2023/02/16 04:32:59;;;;;;;138.70;65.50;;;;;;;-1.30;95.56;100720.44;103552;1251;109216;-72
2023/02/16 04:35:34;;;;;;;;;;;;;;;-1.30;95.55;100718.39;103465;1250;138601;-70
2023/02/16 04:38:02;;;;;;;134.50;60.30;;;;;;;-1.29;95.67;100721.30;103558;1254;96444;-71
2023/02/16 04:40:47;;;;;;;140.40;63.50;;;;;;;-1.28;95.68;100717.92;103455;1250;138783;-71
2023/02/16 04:43:14;;;;;;;137.40;63.60;;;;;;;-1.26;95.63;100716.09;102702;1251;1002848;-70
2023/02/16 04:45:41;;;;;;;136.90;63.70;;;;;;;-1.25;95.88;100717.16;103464;1254;109594;-70
2023/02/16 04:48:09;;;;;;;133.10;61.90;;;;;;;-1.24;95.78;100719.75;103341;1254;138690;-69
2023/02/16 04:50:38;;;;;;;150.00;66.00;;;;;;;-1.24;95.78;100718.90;103566;1250;96936;-70
2023/02/16 04:53:10;;;;;;;143.40;63.60;;;;;;;-1.21;95.85;100718.10;103369;1251;138563;-70
2023/02/16 04:55:38;;;;;;;137.80;63.20;;;;;;;-1.18;95.99;100719.68;103480;1255;96463;-70
2023/02/16 04:58:16;;;;;;;138.40;63.80;;;;;;;-1.16;96.01;100718.02;103355;1250;138807;-70
2023/02/16 05:00:43;;;;;;;145.50;64.00;;;;;;;-1.14;96.00;100720.98;103397;1251;107182;-69
2023/02/16 05:03:13;;;;;;;130.30;61.00;;;;;;;-1.13;95.87;100718.94;103473;1251;96333;-70
2023/02/16 05:05:49;;;;;;;109.70;48.40;;;;;;;-1.12;95.87;100715.21;103449;1254;138453;-70
2023/02/16 05:08:21;;;;;;;136.40;61.50;;;;;;;-1.11;95.51;100713.52;103553;1249;96437;-70
2023/02/16 05:17:00;;;;;;;137.60;61.80;;;;;;;-1.10;95.50;100707.56;103427;1250;138657;-70
2023/02/16 05:19:49;;;;;;;131.30;62.00;;;;;;;-1.10;95.46;100704.84;103478;1250;107750;-70
2023/02/16 05:22:20;;;;;;;129.50;60.40;;;;;;;-1.11;95.39;100700.56;103413;1254;138767;-71
2023/02/16 05:24:48;;;;;;;129.30;61.30;;;;;;;-1.10;95.35;100700.57;102794;1250;1003626;-70
2023/02/16 05:27:17;;;;;;;132.10;60.50;;;;;;;-1.10;95.43;100700.73;103474;1254;106665;-70
2023/02/16 05:29:44;;;;;;;134.60;60.50;;;;;;;-1.09;95.30;100702.63;103414;1254;138668;-70
2023/02/16 05:32:11;;;;;;;136.00;62.50;;;;;;;-1.10;95.12;100701.77;103460;1250;107662;-70
2023/02/16 05:34:38;;;;;;;136.60;61.80;;;;;;;-1.10;95.37;100701.94;103337;1250;138884;-71
2023/02/16 05:37:06;;;;;;;134.40;59.90;;;;;;;-1.09;95.39;100699.40;103572;1256;109917;-70
2023/02/16 05:39:36;;;;;;;141.80;63.40;;;;;;;-1.08;95.40;100703.01;103393;1256;107653;-70
2023/02/16 05:42:13;;;;;;;136.90;60.30;;;;;;;-1.07;95.29;100697.09;103338;1254;138692;-70
2023/02/16 05:44:43;;;;;;;131.70;61.60;;;;;;;-1.07;95.19;100693.66;103485;1251;107063;-70
2023/02/16 05:47:20;;;;;;;131.00;62.50;;;;;;;-1.07;95.35;100696.23;103356;1250;138744;-69
2023/02/16 05:49:57;;;;;;;138.20;63.30;;;;;;;-1.07;95.26;100696.58;103538;1253;110653;-70
2023/02/16 05:52:27;;;;;;;141.80;64.10;;;;;;;-1.06;95.24;100697.10;103373;1250;138787;-70
2023/02/16 05:55:06;;;;;;;135.20;62.20;;;;;;;-1.05;95.21;100692.52;103544;1250;96301;-70
2023/02/16 05:57:34;;;;;;;136.10;61.70;;;;;;;-1.01;95.20;100684.91;103498;1250;106808;-70
2023/02/16 06:00:02;;;;;;;129.40;61.00;;;;;;;-0.98;95.17;100682.23;103382;1250;138907;-70
2023/02/16 06:02:38;;;;;;;128.40;60.80;;;;;;;-0.96;95.03;100681.60;103527;1250;110631;-71
2023/02/16 06:05:09;;;;;;;120.20;58.10;;;;;;;-0.91;95.14;100687.84;103389;1251;138851;-70
2023/02/16 06:07:47;;;;;;;123.90;59.00;;;;;;;-0.88;94.91;100683.84;103539;1250;96491;-70
2023/02/16 06:10:34;;;;;;;123.80;59.70;;;;;;;-0.82;94.94;100691.64;103375;1254;138517;-70
2023/02/16 06:13:07;;;;;;;134.90;62.50;;;;;;;-0.75;95.07;100700.82;103559;1250;96415;-71
2023/02/16 06:15:34;;;;;;;131.70;59.70;;;;;;;-0.66;95.09;100696.23;102798;1250;1002643;-70
2023/02/16 06:18:04;;;;;;;123.20;60.70;;;;;;;-0.57;95.03;100690.61;103388;1251;138699;-70
2023/02/16 06:20:31;;;;;;;128.70;59.80;;;;;;;-0.49;94.77;100678.83;103541;1251;96324;-71
2023/02/16 06:23:18;;;;;;;118.20;57.20;;;;;;;-0.39;94.60;100683.61;103322;1251;138414;-71
2023/02/16 06:25:51;;;;;;;125.80;60.00;;;;;;;-0.29;94.48;100685.52;103492;1250;96351;-71
2023/02/16 06:28:38;;;;;;;123.40;57.40;;;;;;;-0.18;94.22;100686.08;102696;1251;1003392;-70
2023/02/16 06:31:21;;;;;;;123.20;57.20;;;;;;;-0.08;93.82;100681.62;103492;1250;106676;-70
2023/02/16 06:33:51;;;;;;;119.10;57.30;;;;;;;0.02;93.58;100679.23;103586;1250;96438;-70
2023/02/16 06:36:39;;;;;;;113.60;55.10;;;;;;;0.12;93.05;100679.06;103562;1251;109421;-71
2023/02/16 06:39:08;;;;;;;112.00;56.80;;;;;;;0.23;92.81;100674.30;103487;1254;96472;-72
2023/02/16 06:41:54;;;;;;;;;;;;;;;0.36;92.49;100676.04;103448;1253;138151;-70
2023/02/16 06:44:43;;;;;;;103.80;52.60;;;;;;;0.49;92.49;100678.99;102733;1251;1003436;-70
2023/02/16 06:47:21;;;;;;;112.50;54.90;;;;;;;0.58;91.68;100678.80;103370;1254;139299;-70
2023/02/16 06:50:13;;;;;;;108.30;53.60;;;;;;;0.67;91.14;100679.42;103511;1250;107869;-70
2023/02/16 06:53:00;;;;;;;103.70;52.70;;;;;;;0.87;91.00;100674.77;103416;1250;138536;-70
2023/02/16 06:55:49;;;;;;;104.00;50.90;;;;;;;1.09;90.52;100675.06;103474;1254;109528;-70
2023/02/16 06:58:36;;;;;;;105.70;53.40;;;;;;;1.32;90.09;100673.80;103356;1251;138741;-70
2023/02/16 07:01:04;;;;;;;107.60;53.30;;;;;;;1.47;89.71;100673.14;103554;1250;96518;-70
2023/02/16 07:03:53;;;;;;;100.50;52.90;;;;;;;1.76;89.52;100675.67;103439;1254;109993;-70
2023/02/16 07:06:31;;;;;;;96.30;50.70;;;;;;;2.09;89.26;100673.77;103409;1253;138425;-70
2023/02/16 07:08:58;;;;;;;100.20;53.50;;;;;;;2.39;88.93;100667.84;103477;1250;109672;-70
2023/02/16 07:11:37;;;;;;;98.50;52.50;;;;;;;2.62;87.90;100664.92;103327;1254;138654;-70
2023/02/16 07:14:04;;;;;;;93.00;50.90;;;;;;;2.74;87.29;100657.45;103482;1254;98309;-71
2023/02/16 07:16:32;;;;;;;94.90;50.40;;;;;;;2.90;87.00;100653.76;102677;1250;1002635;-70
2023/02/16 07:18:59;;;;;;;95.40;51.90;;;;;;;3.11;86.69;100659.02;103383;1254;96527;-70
2023/02/16 07:21:47;;;;;;;92.20;51.20;;;;;;;3.35;85.60;100658.09;103475;1250;109701;-70
2023/02/16 07:24:17;;;;;;;92.50;50.40;;;;;;;3.52;84.84;100664.01;103315;1251;138140;-71
2023/02/16 07:26:44;;;;;;;90.40;51.30;;;;;;;3.76;84.57;100663.71;103437;1251;96504;-70
2023/02/16 07:29:13;;;;;;;88.10;49.20;;;;;;;4.05;84.18;100664.45;103406;1250;137948;-70
2023/02/16 07:31:40;;;;;;;87.50;51.50;;;;;;;4.27;83.18;100656.38;103427;1250;96431;-71
2023/02/16 07:34:08;;;;;;;85.60;51.10;;;;;;;4.44;82.28;100656.89;103508;1250;109495;-70
2023/02/16 07:36:35;;;;;;;83.30;49.60;;;;;;;4.62;81.85;100650.16;103360;1251;137980;-70
2023/02/16 07:39:02;;;;;;;83.60;50.60;;;;;;;4.81;81.05;100643.91;103492;1254;96446;-72
2023/02/16 07:41:29;;;;;;;84.60;50.60;;;;;;;5.02;80.27;100640.08;103389;1251;138177;-69
2023/02/16 07:44:02;;;;;;;81.70;49.60;;;;;;;5.14;79.83;100635.71;103376;1253;96435;-69
2023/02/16 07:46:29;;;;;;;87.90;51.60;;;;;;;5.23;78.91;100633.96;103277;1254;139233;-70
2023/02/16 07:49:08;;;;;;;80.30;48.90;;;;;;;5.34;78.82;100637.02;103451;1254;108336;-69
2023/02/16 07:51:39;;;;;;;82.20;48.00;;;;;;;5.45;78.04;100634.21;103470;1254;96991;-69
2023/02/16 07:54:07;;;;;;;79.30;48.70;;;;;;;5.52;77.30;100633.82;103827;1253;138109;-69
2023/02/16 07:56:35;;;;;;;81.70;49.30;;;;;;;5.67;76.90;100632.88;103536;1250;96522;-70
2023/02/16 07:59:23;;;;;;;83.20;48.70;;;;;;;5.97;76.62;100637.36;103427;1250;138051;-71
2023/02/16 08:01:50;;;;;;;79.30;49.30;;;;;;;6.29;76.02;100631.77;103446;1250;107666;-71
2023/02/16 08:04:17;;;;;;;77.90;47.40;;;;;;;6.65;75.56;100631.77;103325;1250;138479;-71
2023/02/16 08:06:45;;;;;;;78.90;48.60;;;;;;;7.07;74.81;100627.52;103514;1251;107684;-70
2023/02/16 08:09:12;;;;;;;76.70;48.90;;;;;;;7.40;73.62;100626.24;102745;1250;1002923;-71
2023/02/16 08:11:39;;;;;;;77.80;47.80;;;;;;;7.65;73.48;100621.73;103215;1250;139304;-71
2023/02/16 08:14:16;;;;;;;77.60;48.20;;;;;;;7.85;72.71;100615.72;103370;1250;107519;-71
2023/02/16 08:16:43;;;;;;;79.00;49.20;;;;;;;8.03;72.19;100618.23;103426;1250;138263;-70
2023/02/16 08:19:12;;;;;;;74.90;47.40;;;;;;;8.34;71.52;100611.52;102728;1250;1002666;-71
2023/02/16 08:21:39;;;;;;;74.10;47.70;;;;;;;8.70;70.91;100608.10;102824;1253;1003208;-70
2023/02/16 08:24:08;;;;;;;74.20;48.00;;;;;;;9.04;69.86;100607.95;103432;1254;138033;-71
2023/02/16 08:26:40;;;;;;;75.50;47.80;;;;;;;9.44;69.54;100608.15;103552;1251;107392;-70
2023/02/16 08:29:11;;;;;;;74.30;46.70;;;;;;;9.71;68.44;100613.11;103359;1254;137916;-70
2023/02/16 08:31:39;;;;;;;69.70;47.40;;;;;;;9.96;67.90;100613.05;103577;1251;108067;-69
2023/02/16 08:34:06;;;;;;;69.40;47.10;;;;;;;10.08;67.01;100616.06;103419;1250;96420;-69
2023/02/16 08:36:35;;;;;;;70.50;45.40;;;;;;;10.19;67.05;100612.65;103386;1254;137514;-70
2023/02/16 08:39:04;;;;;;;69.20;46.50;;;;;;;10.38;66.79;100618.66;103524;1250;107106;-70
2023/02/16 08:41:34;;;;;;;69.20;46.40;;;;;;;10.53;65.82;100617.90;103433;1250;138318;-70
2023/02/16 08:44:01;;;;;;;73.10;46.80;;;;;;;10.53;65.24;100618.95;103403;1250;107699;-70
2023/02/16 08:46:29;;;;;;;62.40;44.50;;;;;;;10.56;64.61;100615.21;103326;1251;138099;-71
2023/02/16 08:48:58;;;;;;;66.40;44.50;;;;;;;10.51;64.22;100617.61;103532;1254;109939;-71
2023/02/16 08:51:26;;;;;;;69.20;46.30;;;;;;;10.36;63.92;100615.07;103430;1254;107219;-68
2023/02/16 08:53:54;;;;;;;67.10;45.90;;;;;;;10.15;63.90;100619.70;103440;1251;138432;-68
2023/02/16 08:56:22;;;;;;;70.70;45.70;;;;;;;10.15;64.37;100616.75;103458;1252;107333;-70
2023/02/16 08:58:49;;;;;;;67.20;44.20;;;;;;;10.19;63.85;100612.13;103388;1255;137937;-70
2023/02/16 09:01:16;;;;;;;69.10;46.20;;;;;;;10.16;63.79;100605.77;103457;1256;110280;-70
2023/02/16 09:03:46;;;;;;;70.70;44.60;;;;;;;10.22;63.86;100604.10;103482;1251;107656;-70
2023/02/16 09:06:15;;;;;;;70.00;45.50;;;;;;;10.25;63.47;100601.44;103598;1251;137935;-70
2023/02/16 09:08:43;;;;;;;71.90;44.90;;;;;;;10.25;63.26;100599.88;103352;1256;106733;-70
2023/02/16 09:11:13;;;;;;;70.00;44.90;;;;;;;10.35;63.38;100598.56;103387;1256;138164;-70
2023/02/16 09:13:42;;;;;;;67.70;44.70;;;;;;;10.45;62.70;100598.66;103463;1253;110048;-69
2023/02/16 09:16:11;;;;;;;65.30;42.70;;;;;;;10.47;62.38;100603.11;103345;1252;107387;-69
2023/02/16 09:18:43;;;;;;;70.40;43.70;;;;;;;10.47;62.06;100596.34;104486;1250;95185;-71
2023/02/16 09:21:14;;;;;;;67.60;44.50;;;;;;;10.54;61.98;100599.27;103430;1251;107183;-69
2023/02/16 09:23:46;;;;;;;65.80;43.70;;;;;;;10.59;61.82;100601.05;103380;1254;137796;-70
2023/02/16 09:26:14;;;;;;;67.00;44.60;;;;;;;10.79;61.94;100602.25;103416;1254;112375;-70
2023/02/16 09:28:42;;;;;;;66.10;43.30;;;;;;;10.97;61.34;100598.99;103319;1254;138063;-70
2023/02/16 09:31:14;;;;;;;70.50;42.80;;;;;;;11.16;61.59;100597.23;103520;1254;96467;-70
2023/02/16 09:33:42;;;;;;;67.00;44.00;;;;;;;11.28;60.68;100603.48;103499;1250;108364;-70
2023/02/16 09:36:12;;;;;;;67.50;44.00;;;;;;;11.37;59.90;100599.58;102592;1255;1002564;-70
2023/02/16 09:38:40;;;;;;;70.50;44.50;;;;;;;11.40;59.71;100606.42;103526;1250;110402;-71
2023/02/16 09:41:23;;;;;;;68.30;44.20;;;;;;;11.34;59.21;100608.19;103364;1250;138430;-70
2023/02/16 09:43:56;;;;;;;67.40;45.50;;;;;;;11.24;59.13;100605.70;103536;1250;96431;-72
2023/02/16 09:46:26;;;;;;;73.10;44.30;;;;;;;11.12;59.11;100602.02;103355;1251;137770;-73
2023/02/16 09:48:53;;;;;;;69.10;43.40;;;;;;;10.99;58.40;100597.89;103355;1256;96413;-71
2023/02/16 09:51:23;;;;;;;70.00;44.20;;;;;;;10.88;58.46;100600.80;103488;1250;110403;-71
2023/02/16 09:54:05;;;;;;;69.50;43.50;;;;;;;10.87;58.63;100594.73;103285;1250;137937;-74
2023/02/16 09:56:38;;;;;;;66.80;43.00;;;;;;;10.92;58.66;100603.64;103563;1250;96822;-73
2023/02/16 09:59:13;;;;;;;65.40;42.20;;;;;;;11.08;58.84;100604.05;103307;1250;138028;-72
2023/02/16 10:01:49;;;;;;;63.00;42.90;;;;;;;11.23;57.97;100604.31;103501;1256;96405;-69
2023/02/16 10:04:37;;;;;;;67.20;43.00;;;;;;;11.32;58.35;100604.39;103696;1250;109462;-70
2023/02/16 10:07:21;;;;;;;66.90;44.10;;;;;;;11.44;57.74;100601.60;103606;1250;107120;-73
2023/02/16 10:09:54;;;;;;;67.90;44.10;;;;;;;11.40;57.41;100595.81;103538;1254;96450;-74
2023/02/16 10:12:26;;;;;;;64.70;42.70;;;;;;;11.31;57.55;100592.41;103340;1251;138397;-74
2023/02/16 10:14:56;;;;;;;64.40;43.30;;;;;;;11.31;57.66;100594.52;103487;1251;96412;-73
2023/02/16 10:17:32;;;;;;;63.50;41.10;;;;;;;11.31;57.39;100594.69;103313;1251;137731;-71
2023/02/16 10:20:09;;;;;;;63.80;41.80;;;;;;;11.24;56.69;100589.16;103418;1256;107698;-73
2023/02/16 10:22:49;;;;;;;63.50;41.70;;;;;;;11.03;56.44;100591.50;103339;1256;138203;-74
2023/02/16 10:25:22;;;;;;;66.90;42.90;;;;;;;10.92;56.81;100589.55;103320;1253;107694;-73
2023/02/16 10:27:56;;;;;;;63.50;41.80;;;;;;;10.82;57.13;100584.61;103365;1253;96536;-74
2023/02/16 10:30:27;;;;;;;68.70;43.80;;;;;;;10.82;57.38;100583.05;103387;1254;139340;-71
2023/02/16 10:33:02;;;;;;;71.60;44.00;;;;;;;10.91;57.95;100580.35;104702;1252;106899;-71
2023/02/16 10:35:45;;;;;;;65.30;42.60;;;;;;;11.07;57.99;100582.52;103632;1253;96441;-69
2023/02/16 10:38:21;;;;;;;66.70;41.60;;;;;;;11.17;57.75;100583.61;103078;1257;137739;-69
2023/02/16 10:40:55;;;;;;;62.50;40.60;;;;;;;11.15;56.65;100579.31;103310;1257;96423;-70
2023/02/16 10:43:37;;;;;;;69.60;42.70;;;;;;;11.22;57.22;100575.63;103667;1253;137631;-69
2023/02/16 10:46:05;;;;;;;65.30;41.20;;;;;;;11.37;57.41;100568.40;103296;1257;107668;-69
2023/02/16 10:48:34;;;;;;;64.40;41.80;;;;;;;11.49;57.60;100566.13;103120;1256;137918;-69
2023/02/16 10:51:05;;;;;;;64.50;41.30;;;;;;;11.56;57.25;100559.83;103321;1253;108917;-69
2023/02/16 10:53:40;;;;;;;65.00;41.10;;;;;;;11.56;56.94;100555.64;103298;1257;96430;-69
2023/02/16 10:56:38;;;;;;;61.60;39.20;;;;;;;11.58;56.91;100548.94;103168;1253;137560;-69
2023/02/16 10:59:12;;;;;;;63.10;41.20;;;;;;;11.55;56.82;100545.21;103228;1253;107466;-70
2023/02/16 11:01:43;;;;;;;65.80;39.60;;;;;;;11.49;56.55;100545.92;103231;1253;138286;-69
2023/02/16 11:04:32;;;;;;;63.40;39.70;;;;;;;11.28;56.27;100542.23;103332;1256;107430;-69
2023/02/16 11:07:08;;;;;;;61.20;38.30;;;;;;;11.07;56.28;100545.28;103305;1256;138108;-69
2023/02/16 11:09:36;;;;;;;64.80;40.40;;;;;;;10.92;56.80;100545.52;102540;1253;1003729;-69
2023/02/16 11:12:13;;;;;;;62.70;40.20;;;;;;;10.83;56.94;100541.97;103279;1256;138181;-69
2023/02/16 11:14:47;;;;;;;65.00;38.80;;;;;;;10.75;57.13;100547.92;103448;1256;96453;-69
2023/02/16 11:17:17;;;;;;;59.30;38.00;;;;;;;10.72;57.48;100546.45;102836;1253;107563;-69
2023/02/16 11:19:52;;;;;;;65.00;38.90;;;;;;;10.75;57.76;100542.19;102665;1253;137854;-69
2023/02/16 11:22:31;;;;;;;65.10;38.40;;;;;;;10.83;57.85;100535.87;103274;1253;109429;-69
2023/02/16 11:25:13;;;;;;;66.70;39.00;;;;;;;10.80;57.42;100536.33;102787;1253;138050;-69
2023/02/16 11:27:51;;;;;;;62.40;39.10;;;;;;;10.68;57.10;100533.16;103168;1258;96457;-69
2023/02/16 11:30:28;;;;;;;62.90;37.40;;;;;;;10.55;57.65;100531.97;103278;1253;137786;-68
2023/02/16 11:33:22;;;;;;;64.20;37.60;;;;;;;10.46;57.43;100532.40;103412;1256;96524;-69
2023/02/16 11:35:50;;;;;;;63.50;38.50;;;;;;;10.40;58.00;100529.94;103547;1253;109163;-69
2023/02/16 11:38:31;;;;;;;60.90;38.10;;;;;;;10.42;58.31;100530.60;103372;1257;107183;-69
2023/02/16 11:41:00;;;;;;;70.10;39.20;;;;;;;10.48;58.32;100533.02;103344;1253;96414;-69
2023/02/16 11:43:32;;;;;;;63.70;38.90;;;;;;;10.48;58.51;100531.12;103149;1253;137762;-69
2023/02/16 11:46:15;;;;;;;66.00;38.60;;;;;;;10.51;58.39;100531.73;103379;1253;96629;-69
2023/02/16 11:48:45;;;;;;;64.50;37.90;;;;;;;10.48;58.13;100525.58;103300;1257;138809;-69
2023/02/16 11:51:14;;;;;;;60.00;36.80;;;;;;;10.38;58.24;100526.69;103321;1255;105589;-69
2023/02/16 11:53:43;;;;;;;68.20;36.70;;;;;;;10.37;58.45;100522.89;103295;1256;96451;-72
2023/02/16 11:56:26;;;;;;;60.60;37.00;;;;;;;10.36;58.63;100520.66;103193;1253;137480;-63
2023/02/16 11:59:07;;;;;;;61.00;35.40;;;;;;;10.34;59.43;100523.16;103391;1253;96457;-64
2023/02/16 12:02:03;;;;;;;60.30;36.00;;;;;;;10.38;59.30;100522.00;102505;1253;1003305;-64
2023/02/16 12:04:44;;;;;;;61.10;36.90;;;;;;;10.33;59.09;100519.71;104000;1253;107582;-63